createdAt,value
2022-09-28T00:01:41.421Z,1.2
2022-09-28T00:07:25.195Z,1.4
2022-09-28T00:13:08.660Z,1
2022-09-28T00:18:52.505Z,1.1
2022-09-28T00:24:35.925Z,1.3
2022-09-28T00:30:19.439Z,1.1
2022-09-28T00:36:03.176Z,1.1
2022-09-28T00:41:47.403Z,1.4
2022-09-28T00:47:42.241Z,1.3
2022-09-28T00:53:27.764Z,1.3
2022-09-28T00:59:11.475Z,1.5
2022-09-28T01:04:55.115Z,1.5
2022-09-28T01:10:38.596Z,1.5
2022-09-28T01:16:27.842Z,1.6
2022-09-28T01:22:18.563Z,1.6
2022-09-28T01:28:05.898Z,1.8
2022-09-28T01:33:51.819Z,1.9
2022-09-28T01:39:36.378Z,1.6
2022-09-28T01:45:23.438Z,1.8
2022-09-28T01:51:11.726Z,1.6
2022-09-28T01:56:56.990Z,1.9
2022-09-28T02:02:41.746Z,2.1
2022-09-28T02:08:28.338Z,1.9
2022-09-28T02:14:12.682Z,2.1
2022-09-28T02:19:56.989Z,2.7
2022-09-28T02:25:41.771Z,3.2
2022-09-28T02:31:25.201Z,3.2
2022-09-28T02:37:08.578Z,3.5
2022-09-28T02:42:54.226Z,3.2
2022-09-28T02:49:10.859Z,3.4
2022-09-28T02:55:03.949Z,3
2022-09-28T03:00:53.412Z,2.6
2022-09-28T03:06:41.491Z,2.7
2022-09-28T03:12:26.227Z,2.1
2022-09-28T03:18:09.631Z,2.3
2022-09-28T03:23:52.915Z,2.2
2022-09-28T03:29:36.022Z,2.1
2022-09-28T03:35:19.431Z,2.2
2022-09-28T03:41:03.167Z,2
2022-09-28T03:46:47.786Z,2
2022-09-28T03:52:31.045Z,2
2022-09-28T03:58:14.250Z,2.5
2022-09-28T04:03:58.479Z,2.1
2022-09-28T04:09:42.418Z,2.5
2022-09-28T04:15:26.871Z,2.6
2022-09-28T04:21:12.651Z,2.5
2022-09-28T04:26:55.903Z,2.7
2022-09-28T04:32:39.037Z,2.8
2022-09-28T04:38:51.603Z,3
2022-09-28T04:44:25.202Z,3
2022-09-28T04:50:10.040Z,2.9
2022-09-28T04:56:01.456Z,3.4
2022-09-28T05:01:44.623Z,3.1
2022-09-28T05:07:28.065Z,3.4
2022-09-28T05:13:11.905Z,3.4
2022-09-28T05:18:55.614Z,3.5
2022-09-28T05:24:39.766Z,3.6
2022-09-28T05:30:23.078Z,3.3
2022-09-28T05:36:06.618Z,3.2
2022-09-28T05:41:49.894Z,3.3
2022-09-28T05:47:33.016Z,3.8
2022-09-28T05:53:16.450Z,3.5
2022-09-28T05:58:59.851Z,3.4
2022-09-28T06:04:43.025Z,3.5
2022-09-28T06:10:26.397Z,3.5
2022-09-28T06:16:09.995Z,3.8
2022-09-28T06:21:53.300Z,3.7
2022-09-28T06:27:36.560Z,3.6
2022-09-28T06:33:19.866Z,3.9
2022-09-28T06:39:03.023Z,3.9
2022-09-28T06:44:46.428Z,4.2
2022-09-28T06:50:30.682Z,4.4
2022-09-28T06:56:14.058Z,5
2022-09-28T07:01:57.193Z,4.6
2022-09-28T07:07:41.436Z,5
2022-09-28T07:13:49.408Z,5.1
2022-09-28T07:19:28.843Z,4.8
2022-09-28T07:25:12.267Z,4.7
2022-09-28T07:30:57.999Z,4.7
2022-09-28T07:36:41.402Z,5.1
2022-09-28T07:42:24.650Z,4.5
2022-09-28T07:48:08.932Z,4.5
2022-09-28T07:53:52.012Z,4.3
2022-09-28T07:59:35.230Z,4.6
2022-09-28T08:05:18.631Z,4.2
2022-09-28T08:11:01.959Z,3.9
2022-09-28T08:16:45.581Z,4.2
2022-09-28T08:22:33.435Z,3.8
2022-09-28T08:28:16.820Z,3.7
2022-09-28T08:34:00.346Z,3.9
2022-09-28T08:39:44.580Z,4.6
2022-09-28T08:51:14.318Z,5
2022-09-28T08:57:00.691Z,4.2
2022-09-28T09:02:44.205Z,4.2
2022-09-28T09:08:36.204Z,3.7
2022-09-28T09:14:26.514Z,4.1
2022-09-28T09:20:15.476Z,4.5
2022-09-28T09:26:01.967Z,4.6
2022-09-28T09:31:53.266Z,4.2
2022-09-28T09:37:45.790Z,4.1
2022-09-28T09:43:39.490Z,4.3
2022-09-28T09:49:25.681Z,4.1
2022-09-28T09:55:14.149Z,4.3
2022-09-28T10:00:59.894Z,4.2
2022-09-28T10:06:43.742Z,3.8
2022-09-28T10:12:27.087Z,3.9
2022-09-28T10:18:12.507Z,3.1
2022-09-28T10:23:57.036Z,3.8
2022-09-28T10:29:47.316Z,3
2022-09-28T10:35:32.675Z,3.8
2022-09-28T10:41:16.271Z,3.6
2022-09-28T10:47:03.666Z,3.9
2022-09-28T10:52:46.830Z,3.1
2022-09-28T10:58:31.741Z,2.9
2022-09-28T11:04:20.481Z,1.7
2022-09-28T11:10:04.891Z,1.7
2022-09-28T11:15:48.111Z,1.7
2022-09-28T11:21:31.953Z,1.7
2022-09-28T11:27:20.808Z,1.9
2022-09-28T11:33:08.996Z,1.7
2022-09-28T11:38:57.102Z,1.5
2022-09-28T11:44:44.057Z,1.6
2022-09-28T11:50:32.494Z,1.3
2022-09-28T11:56:18.446Z,1.1
2022-09-28T12:02:05.051Z,1.2
2022-09-28T12:07:51.549Z,1.2
2022-09-28T12:13:36.611Z,1.1
2022-09-28T12:19:22.204Z,1
2022-09-28T12:25:08.376Z,1.1
2022-09-28T12:30:52.289Z,1.1
2022-09-28T12:36:42.732Z,1.2
2022-09-28T12:42:32.171Z,1
2022-09-28T12:48:29.598Z,0.9
2022-09-28T12:54:19.006Z,1
2022-09-28T13:00:06.115Z,1.1
2022-09-28T13:06:12.334Z,1.3
2022-09-28T13:12:07.063Z,1.6
2022-09-28T13:17:57.021Z,1.7
2022-09-28T13:23:42.354Z,1.6
2022-09-28T13:29:26.414Z,1.5
2022-09-28T13:35:14.319Z,1.7
2022-09-28T13:41:09.391Z,1.6
2022-09-28T13:46:58.374Z,1.5
2022-09-28T13:52:46.854Z,1.9
2022-09-28T13:58:32.159Z,1.6
2022-09-28T14:04:17.808Z,1.5
2022-09-28T14:10:18.595Z,1.4
2022-09-28T14:16:11.073Z,1.5
2022-09-28T14:22:11.402Z,1.3
2022-09-28T14:28:10.230Z,1.4
2022-09-28T14:34:00.111Z,1.3
2022-09-28T14:39:45.468Z,1.3
2022-09-28T14:45:40.091Z,1.3
2022-09-28T14:51:35.219Z,1.2
2022-09-28T14:57:22.187Z,1.4
2022-09-28T15:03:13.280Z,1.5
2022-09-28T15:08:56.430Z,1.5
2022-09-28T15:14:44.597Z,1.4
2022-09-28T15:20:29.282Z,1.3
2022-09-28T15:26:22.311Z,1.2
2022-09-28T15:32:05.620Z,1.2
2022-09-28T15:37:49.723Z,1.3
2022-09-28T15:43:34.291Z,1.2
2022-09-28T15:49:26.091Z,1.1
2022-09-28T15:55:18.367Z,1.2
2022-09-28T16:01:12.452Z,1.4
2022-09-28T16:07:09.463Z,1.2
2022-09-28T16:12:53.470Z,1.2
2022-09-28T16:18:40.564Z,1.1
2022-09-28T16:24:26.239Z,1.3
2022-09-28T16:30:20.131Z,1.2
2022-09-28T16:36:03.876Z,1.2
2022-09-28T16:41:50.030Z,1.1
2022-09-28T16:47:33.708Z,1.2
2022-09-28T16:53:17.734Z,1.4
2022-09-28T16:59:00.918Z,1.5
2022-09-28T17:04:49.134Z,1.2
2022-09-28T17:11:09.625Z,1.3
2022-09-28T17:17:07.223Z,1.2
2022-09-28T17:22:43.007Z,1.4
2022-09-28T17:28:27.931Z,1.5
2022-09-28T17:34:13.596Z,1.2
2022-09-28T17:39:56.870Z,2.3
2022-09-28T17:45:40.763Z,2.2
2022-09-28T17:51:23.873Z,1.9
2022-09-28T17:57:07.742Z,1.8
2022-09-28T18:02:52.637Z,1.8
2022-09-28T18:08:36.040Z,2.2
2022-09-28T18:14:19.238Z,1.8
2022-09-28T18:20:02.615Z,2
2022-09-28T18:25:46.531Z,1.7
2022-09-28T18:31:29.908Z,2
2022-09-28T18:37:13.495Z,2
2022-09-28T18:42:56.707Z,2.2
2022-09-28T18:48:40.237Z,2.2
2022-09-28T18:54:23.564Z,2.1
2022-09-28T19:00:10.020Z,2.2
2022-09-28T19:05:54.366Z,2.1
2022-09-28T19:11:38.141Z,2
2022-09-28T19:17:21.565Z,1.8
2022-09-28T19:23:04.616Z,2
2022-09-28T19:28:48.202Z,2
2022-09-28T19:34:31.453Z,2.1
2022-09-28T19:40:15.425Z,2.4
2022-09-28T19:46:04.022Z,2
2022-09-28T19:52:14.556Z,2.2
2022-09-28T19:57:51.035Z,3
2022-09-28T20:03:34.197Z,2.3
2022-09-28T20:09:17.677Z,2.5
2022-09-28T20:15:01.145Z,2.6
2022-09-28T20:20:44.601Z,2.7
2022-09-28T20:26:28.391Z,2.7
2022-09-28T20:32:11.638Z,2.8
2022-09-28T20:37:56.106Z,2.9
2022-09-28T20:43:39.184Z,3.1
2022-09-28T20:49:22.331Z,3.1
2022-09-28T20:55:05.695Z,3
2022-09-28T21:00:49.882Z,3.2
2022-09-28T21:06:34.692Z,3.1
2022-09-28T21:12:17.841Z,2.8
2022-09-28T21:18:00.957Z,2.9
2022-09-28T21:23:44.251Z,3.3
2022-09-28T21:29:27.431Z,3
2022-09-28T21:35:10.987Z,3.2
2022-09-28T21:41:00.021Z,3.2
2022-09-28T21:46:43.661Z,2.8
2022-09-28T21:52:27.153Z,3.3
2022-09-28T21:58:10.285Z,3.2
2022-09-28T22:03:54.107Z,3
2022-09-28T22:09:37.122Z,3.4
2022-09-28T22:15:20.270Z,3.2
2022-09-28T22:21:04.329Z,3.6
2022-09-28T22:26:47.662Z,3.6
2022-09-28T22:32:30.998Z,3.8
2022-09-28T22:38:14.193Z,4
2022-09-28T22:43:57.518Z,4.3
2022-09-28T22:49:40.837Z,4.1
2022-09-28T22:55:24.068Z,4.3
2022-09-28T23:01:11.681Z,4
2022-09-28T23:06:54.925Z,4.2
2022-09-28T23:12:38.144Z,4.2
2022-09-28T23:18:21.639Z,4.4
2022-09-28T23:24:04.853Z,4.4
2022-09-28T23:29:48.092Z,4.5
2022-09-28T23:35:31.266Z,4.3
2022-09-28T23:41:14.574Z,4.3
2022-09-28T23:46:58.050Z,4.1
2022-09-28T23:52:41.382Z,4.5
2022-09-28T23:58:24.514Z,4.2
